sensor_id;sensor_type;location;lat;lon;timestamp;pressure;altitude;pressure_sealevel;temperature;humidity
62374;BME280;48409;49.030;1.820;2023-01-19T00:00:28;99886.72;;;4.53;65.16
62374;BME280;48409;49.030;1.820;2023-01-19T00:02:53;99880.63;;;4.52;65.43
62374;BME280;48409;49.030;1.820;2023-01-19T00:05:19;99881.44;;;4.54;65.27
62374;BME280;48409;49.030;1.820;2023-01-19T00:07:45;99884.97;;;4.53;65.50
62374;BME280;48409;49.030;1.820;2023-01-19T00:10:11;99884.91;;;4.55;65.56
62374;BME280;48409;49.030;1.820;2023-01-19T00:12:36;99894.47;;;4.54;65.46
62374;BME280;48409;49.030;1.820;2023-01-19T00:15:02;99896.19;;;4.55;65.35
62374;BME280;48409;49.030;1.820;2023-01-19T00:17:28;99898.75;;;4.57;65.37
62374;BME280;48409;49.030;1.820;2023-01-19T00:19:53;99901.41;;;4.55;65.31
62374;BME280;48409;49.030;1.820;2023-01-19T00:22:19;99905.66;;;4.58;65.40
62374;BME280;48409;49.030;1.820;2023-01-19T00:24:44;99900.44;;;4.58;65.40
62374;BME280;48409;49.030;1.820;2023-01-19T00:27:10;99903.97;;;4.57;65.31
62374;BME280;48409;49.030;1.820;2023-01-19T00:29:38;99909.19;;;4.57;65.29
62374;BME280;48409;49.030;1.820;2023-01-19T00:32:04;99913.47;;;4.58;65.51
62374;BME280;48409;49.030;1.820;2023-01-19T00:34:30;99920.47;;;4.57;65.38
62374;BME280;48409;49.030;1.820;2023-01-19T00:37:05;99898.75;;;4.57;65.46
62374;BME280;48409;49.030;1.820;2023-01-19T00:39:31;99910.88;;;4.58;65.48
62374;BME280;48409;49.030;1.820;2023-01-19T00:41:56;99911.75;;;4.59;65.47
62374;BME280;48409;49.030;1.820;2023-01-19T00:44:40;99905.66;;;4.58;65.34
62374;BME280;48409;49.030;1.820;2023-01-19T00:47:08;99908.31;;;4.56;65.35
62374;BME280;48409;49.030;1.820;2023-01-19T00:49:34;99912.69;;;4.56;65.53
62374;BME280;48409;49.030;1.820;2023-01-19T00:51:59;99909.19;;;4.57;65.52
62374;BME280;48409;49.030;1.820;2023-01-19T00:54:25;99911.78;;;4.57;65.48
62374;BME280;48409;49.030;1.820;2023-01-19T00:56:50;99918.75;;;4.56;65.31
62374;BME280;48409;49.030;1.820;2023-01-19T00:59:15;99924.84;;;4.57;65.43
62374;BME280;48409;49.030;1.820;2023-01-19T01:01:41;99924.84;;;4.57;65.37
62374;BME280;48409;49.030;1.820;2023-01-19T01:04:06;99923.13;;;4.56;65.45
62374;BME280;48409;49.030;1.820;2023-01-19T01:06:31;99936.19;;;4.56;65.45
62374;BME280;48409;49.030;1.820;2023-01-19T01:08:57;99930.03;;;4.57;65.51
62374;BME280;48409;49.030;1.820;2023-01-19T01:11:22;99928.34;;;4.56;65.39
62374;BME280;48409;49.030;1.820;2023-01-19T01:13:48;99929.19;;;4.56;65.41
62374;BME280;48409;49.030;1.820;2023-01-19T01:16:16;99931.88;;;4.55;65.34
62374;BME280;48409;49.030;1.820;2023-01-19T01:18:42;99932.69;;;4.55;65.46
62374;BME280;48409;49.030;1.820;2023-01-19T01:21:09;99926.66;;;4.55;65.37
62374;BME280;48409;49.030;1.820;2023-01-19T01:23:37;99933.56;;;4.56;65.52
62374;BME280;48409;49.030;1.820;2023-01-19T01:26:02;99929.25;;;4.55;65.38
62374;BME280;48409;49.030;1.820;2023-01-19T01:28:28;99931.88;;;4.55;65.27
62374;BME280;48409;49.030;1.820;2023-01-19T01:30:55;99924.94;;;4.54;65.56
62374;BME280;48409;49.030;1.820;2023-01-19T01:33:21;99937.91;;;4.55;65.48
62374;BME280;48409;49.030;1.820;2023-01-19T01:35:48;99944.00;;;4.56;65.29
62374;BME280;48409;49.030;1.820;2023-01-19T01:38:14;99935.31;;;4.55;65.30
62374;BME280;48409;49.030;1.820;2023-01-19T01:40:40;99942.31;;;4.55;65.41
62374;BME280;48409;49.030;1.820;2023-01-19T01:43:14;99947.53;;;4.55;65.45
62374;BME280;48409;49.030;1.820;2023-01-19T01:45:41;99950.16;;;4.53;65.40
62374;BME280;48409;49.030;1.820;2023-01-19T01:48:11;99949.31;;;4.53;65.34
62374;BME280;48409;49.030;1.820;2023-01-19T01:51:00;99947.59;;;4.52;65.30
62374;BME280;48409;49.030;1.820;2023-01-19T01:53:48;99940.69;;;4.51;65.37
62374;BME280;48409;49.030;1.820;2023-01-19T01:56:20;99952.88;;;4.50;65.63
62374;BME280;48409;49.030;1.820;2023-01-19T01:58:47;99959.00;;;4.49;65.54
62374;BME280;48409;49.030;1.820;2023-01-19T02:01:13;99964.22;;;4.49;65.38
62374;BME280;48409;49.030;1.820;2023-01-19T02:03:58;99967.72;;;4.48;65.42
62374;BME280;48409;49.030;1.820;2023-01-19T02:06:23;99965.16;;;4.47;65.46
62374;BME280;48409;49.030;1.820;2023-01-19T02:08:58;99973.00;;;4.47;65.44
62374;BME280;48409;49.030;1.820;2023-01-19T02:11:45;99970.47;;;4.43;65.58
62374;BME280;48409;49.030;1.820;2023-01-19T02:14:30;99975.69;;;4.43;65.39
62374;BME280;48409;49.030;1.820;2023-01-19T02:16:55;99977.47;;;4.41;65.33
62374;BME280;48409;49.030;1.820;2023-01-19T02:19:26;99967.03;;;4.41;65.42
62374;BME280;48409;49.030;1.820;2023-01-19T02:24:31;99970.56;;;4.40;65.44
62374;BME280;48409;49.030;1.820;2023-01-19T02:26:56;99966.25;;;4.39;65.47
62374;BME280;48409;49.030;1.820;2023-01-19T02:29:24;99963.66;;;4.39;65.56
62374;BME280;48409;49.030;1.820;2023-01-19T02:31:51;99977.59;;;4.38;65.44
62374;BME280;48409;49.030;1.820;2023-01-19T02:34:19;99982.84;;;4.37;65.41
62374;BME280;48409;49.030;1.820;2023-01-19T02:36:50;99988.03;;;4.38;65.52
62374;BME280;48409;49.030;1.820;2023-01-19T02:39:19;99988.97;;;4.36;65.38
62374;BME280;48409;49.030;1.820;2023-01-19T02:41:50;99982.00;;;4.36;65.44
62374;BME280;48409;49.030;1.820;2023-01-19T02:44:18;99986.41;;;4.34;65.24
62374;BME280;48409;49.030;1.820;2023-01-19T02:46:45;99995.97;;;4.34;65.38
62374;BME280;48409;49.030;1.820;2023-01-19T02:49:10;99993.38;;;4.34;65.51
62374;BME280;48409;49.030;1.820;2023-01-19T02:51:36;99984.72;;;4.33;65.45
62374;BME280;48409;49.030;1.820;2023-01-19T02:57:16;99976.06;;;4.31;65.17
62374;BME280;48409;49.030;1.820;2023-01-19T03:00:10;99982.19;;;4.30;65.25
62374;BME280;48409;49.030;1.820;2023-01-19T03:05:20;99988.31;;;4.29;65.31
62374;BME280;48409;49.030;1.820;2023-01-19T03:08:07;99990.09;;;4.27;65.31
62374;BME280;48409;49.030;1.820;2023-01-19T03:15:51;99991.94;;;4.25;65.26
62374;BME280;48409;49.030;1.820;2023-01-19T03:18:21;99987.53;;;4.25;65.37
62374;BME280;48409;49.030;1.820;2023-01-19T03:20:50;99983.19;;;4.26;65.28
62374;BME280;48409;49.030;1.820;2023-01-19T03:23:19;99989.31;;;4.25;65.54
62374;BME280;48409;49.030;1.820;2023-01-19T03:25:47;99981.50;;;4.25;65.38
62374;BME280;48409;49.030;1.820;2023-01-19T03:28:15;99981.50;;;4.25;65.56
62374;BME280;48409;49.030;1.820;2023-01-19T03:30:45;99971.06;;;4.25;65.30
62374;BME280;48409;49.030;1.820;2023-01-19T03:33:15;99971.97;;;4.24;65.34
62374;BME280;48409;49.030;1.820;2023-01-19T03:35:46;99978.03;;;4.24;65.32
62374;BME280;48409;49.030;1.820;2023-01-19T03:38:21;99974.59;;;4.24;65.42
62374;BME280;48409;49.030;1.820;2023-01-19T03:40:50;99972.84;;;4.23;65.34
62374;BME280;48409;49.030;1.820;2023-01-19T03:43:17;99972.84;;;4.23;65.38
62374;BME280;48409;49.030;1.820;2023-01-19T03:45:44;99972.09;;;4.19;65.23
62374;BME280;48409;49.030;1.820;2023-01-19T03:48:10;99972.97;;;4.20;65.40
62374;BME280;48409;49.030;1.820;2023-01-19T03:50:35;99972.97;;;4.20;65.45
62374;BME280;48409;49.030;1.820;2023-01-19T03:53:06;99979.97;;;4.17;65.41
62374;BME280;48409;49.030;1.820;2023-01-19T03:55:33;99976.56;;;4.15;65.23
62374;BME280;48409;49.030;1.820;2023-01-19T03:57:59;99969.63;;;4.14;65.46
62374;BME280;48409;49.030;1.820;2023-01-19T04:00:24;99971.44;;;4.12;65.25
62374;BME280;48409;49.030;1.820;2023-01-19T04:02:50;99974.97;;;4.11;65.08
62374;BME280;48409;49.030;1.820;2023-01-19T04:05:16;99981.03;;;4.10;65.30
62374;BME280;48409;49.030;1.820;2023-01-19T04:07:42;99972.47;;;4.07;65.36
62374;BME280;48409;49.030;1.820;2023-01-19T04:10:08;99980.34;;;4.05;65.24
62374;BME280;48409;49.030;1.820;2023-01-19T04:12:37;99973.47;;;4.02;65.29
62374;BME280;48409;49.030;1.820;2023-01-19T04:15:05;99970.97;;;3.99;65.06
62374;BME280;48409;49.030;1.820;2023-01-19T04:17:31;99975.31;;;3.99;65.34
62374;BME280;48409;49.030;1.820;2023-01-19T04:19:56;99971.06;;;3.96;65.31
62374;BME280;48409;49.030;1.820;2023-01-19T04:22:21;99967.63;;;3.94;65.24
62374;BME280;48409;49.030;1.820;2023-01-19T04:24:47;99975.50;;;3.92;65.22
62374;BME280;48409;49.030;1.820;2023-01-19T04:27:18;99971.19;;;3.91;65.13
62374;BME280;48409;49.030;1.820;2023-01-19T04:29:44;99979.91;;;3.90;65.24
62374;BME280;48409;49.030;1.820;2023-01-19T04:32:09;99986.09;;;3.86;65.23
62374;BME280;48409;49.030;1.820;2023-01-19T04:34:37;99980.09;;;3.84;65.00
62374;BME280;48409;49.030;1.820;2023-01-19T04:37:02;99975.75;;;3.83;65.00
62374;BME280;48409;49.030;1.820;2023-01-19T04:39:27;99984.56;;;3.79;65.15
62374;BME280;48409;49.030;1.820;2023-01-19T04:41:53;99982.88;;;3.78;64.99
62374;BME280;48409;49.030;1.820;2023-01-19T04:44:20;99985.50;;;3.76;65.20
62374;BME280;48409;49.030;1.820;2023-01-19T04:46:45;99980.34;;;3.75;64.99
62374;BME280;48409;49.030;1.820;2023-01-19T04:49:12;99984.75;;;3.73;64.88
62374;BME280;48409;49.030;1.820;2023-01-19T04:51:37;99980.50;;;3.70;65.04
62374;BME280;48409;49.030;1.820;2023-01-19T04:54:03;99983.13;;;3.69;64.84
62374;BME280;48409;49.030;1.820;2023-01-19T04:56:28;99981.53;;;3.64;64.83
62374;BME280;48409;49.030;1.820;2023-01-19T04:58:53;99986.78;;;3.63;64.88
62374;BME280;48409;49.030;1.820;2023-01-19T05:01:19;99983.41;;;3.59;64.90
62374;BME280;48409;49.030;1.820;2023-01-19T05:03:45;99981.72;;;3.58;64.97
62374;BME280;48409;49.030;1.820;2023-01-19T05:06:10;99981.78;;;3.55;65.06
62374;BME280;48409;49.030;1.820;2023-01-19T05:08:36;99977.53;;;3.52;65.01
62374;BME280;48409;49.030;1.820;2023-01-19T05:11:01;99979.28;;;3.50;64.78
62374;BME280;48409;49.030;1.820;2023-01-19T05:13:27;99978.50;;;3.48;65.06
62374;BME280;48409;49.030;1.820;2023-01-19T05:15:55;99985.44;;;3.48;65.01
62374;BME280;48409;49.030;1.820;2023-01-19T05:18:20;99984.66;;;3.46;65.04
62374;BME280;48409;49.030;1.820;2023-01-19T05:20:45;99978.63;;;3.44;65.01
62374;BME280;48409;49.030;1.820;2023-01-19T05:23:11;99974.34;;;3.41;64.89
62374;BME280;48409;49.030;1.820;2023-01-19T05:25:37;99985.63;;;3.42;64.90
62374;BME280;48409;49.030;1.820;2023-01-19T05:28:02;99977.91;;;3.38;65.28
62374;BME280;48409;49.030;1.820;2023-01-19T05:30:28;99975.28;;;3.38;64.98
62374;BME280;48409;49.030;1.820;2023-01-19T05:32:54;99978.84;;;3.36;64.96
62374;BME280;48409;49.030;1.820;2023-01-19T05:35:19;99973.66;;;3.34;64.88
62374;BME280;48409;49.030;1.820;2023-01-19T05:37:44;99977.16;;;3.33;64.81
62374;BME280;48409;49.030;1.820;2023-01-19T05:40:10;99973.78;;;3.31;64.86
62374;BME280;48409;49.030;1.820;2023-01-19T05:42:36;99977.25;;;3.30;64.81
62374;BME280;48409;49.030;1.820;2023-01-19T05:45:02;99978.16;;;3.29;64.93
62374;BME280;48409;49.030;1.820;2023-01-19T05:47:28;99971.28;;;3.26;64.99
62374;BME280;48409;49.030;1.820;2023-01-19T05:49:54;99978.28;;;3.24;65.01
62374;BME280;48409;49.030;1.820;2023-01-19T05:52:19;99981.72;;;3.25;64.90
62374;BME280;48409;49.030;1.820;2023-01-19T05:54:46;99985.22;;;3.24;64.90
62374;BME280;48409;49.030;1.820;2023-01-19T05:57:12;99984.44;;;3.22;64.86
62374;BME280;48409;49.030;1.820;2023-01-19T05:59:38;99987.06;;;3.20;64.93
62374;BME280;48409;49.030;1.820;2023-01-19T06:02:04;99980.13;;;3.19;64.87
62374;BME280;48409;49.030;1.820;2023-01-19T06:04:29;99975.03;;;3.16;64.74
62374;BME280;48409;49.030;1.820;2023-01-19T06:06:54;99980.28;;;3.15;64.83
62374;BME280;48409;49.030;1.820;2023-01-19T06:09:20;99984.66;;;3.12;64.85
62374;BME280;48409;49.030;1.820;2023-01-19T06:11:46;99984.75;;;3.09;64.71
62374;BME280;48409;49.030;1.820;2023-01-19T06:14:12;99987.44;;;3.06;64.66
62374;BME280;48409;49.030;1.820;2023-01-19T06:16:37;99983.16;;;3.04;64.79
62374;BME280;48409;49.030;1.820;2023-01-19T06:19:03;99984.94;;;3.02;64.87
62374;BME280;48409;49.030;1.820;2023-01-19T06:21:28;99990.22;;;3.00;65.00
62374;BME280;48409;49.030;1.820;2023-01-19T06:23:54;99986.78;;;2.98;64.85
62374;BME280;48409;49.030;1.820;2023-01-19T06:26:19;99981.59;;;2.96;64.71
62374;BME280;48409;49.030;1.820;2023-01-19T06:28:44;99990.34;;;2.94;65.03
62374;BME280;48409;49.030;1.820;2023-01-19T06:31:10;99985.28;;;2.89;64.89
62374;BME280;48409;49.030;1.820;2023-01-19T06:33:36;99986.09;;;2.90;64.85
62374;BME280;48409;49.030;1.820;2023-01-19T06:36:01;99991.41;;;2.86;64.96
62374;BME280;48409;49.030;1.820;2023-01-19T06:38:27;99995.78;;;2.84;64.98
62374;BME280;48409;49.030;1.820;2023-01-19T06:40:55;99992.38;;;2.82;64.90
62374;BME280;48409;49.030;1.820;2023-01-19T06:43:23;99995.84;;;2.81;65.04
62374;BME280;48409;49.030;1.820;2023-01-19T06:45:49;99997.66;;;2.79;64.84
62374;BME280;48409;49.030;1.820;2023-01-19T06:48:15;99996.81;;;2.77;64.84
62374;BME280;48409;49.030;1.820;2023-01-19T06:50:43;99998.59;;;2.77;65.00
62374;BME280;48409;49.030;1.820;2023-01-19T06:53:09;100001.22;;;2.75;64.88
62374;BME280;48409;49.030;1.820;2023-01-19T06:55:34;100008.22;;;2.73;64.75
62374;BME280;48409;49.030;1.820;2023-01-19T06:58:00;100007.31;;;2.74;65.15
62374;BME280;48409;49.030;1.820;2023-01-19T07:00:26;100007.38;;;2.71;65.14
62374;BME280;48409;49.030;1.820;2023-01-19T07:02:51;100008.28;;;2.70;65.27
62374;BME280;48409;49.030;1.820;2023-01-19T07:05:17;100016.06;;;2.71;65.22
62374;BME280;48409;49.030;1.820;2023-01-19T07:07:43;100013.50;;;2.70;65.21
62374;BME280;48409;49.030;1.820;2023-01-19T07:10:10;100013.50;;;2.70;65.10
62374;BME280;48409;49.030;1.820;2023-01-19T07:12:39;100010.06;;;2.68;65.00
62374;BME280;48409;49.030;1.820;2023-01-19T07:15:05;100010.06;;;2.68;64.94
62374;BME280;48409;49.030;1.820;2023-01-19T07:17:31;100010.94;;;2.67;65.12
62374;BME280;48409;49.030;1.820;2023-01-19T07:19:56;100016.19;;;2.65;64.83
62374;BME280;48409;49.030;1.820;2023-01-19T07:22:22;100015.34;;;2.65;64.96
62374;BME280;48409;49.030;1.820;2023-01-19T07:24:47;100016.22;;;2.64;65.13
62374;BME280;48409;49.030;1.820;2023-01-19T07:27:13;100013.63;;;2.64;64.90
62374;BME280;48409;49.030;1.820;2023-01-19T07:29:40;100016.28;;;2.62;64.99
62374;BME280;48409;49.030;1.820;2023-01-19T07:32:07;100014.50;;;2.63;65.24
62374;BME280;48409;49.030;1.820;2023-01-19T07:34:32;100011.94;;;2.61;65.13
62374;BME280;48409;49.030;1.820;2023-01-19T07:36:58;100016.28;;;2.62;64.93
62374;BME280;48409;49.030;1.820;2023-01-19T07:39:24;100018.91;;;2.60;65.02
62374;BME280;48409;49.030;1.820;2023-01-19T07:41:49;100016.34;;;2.59;65.10
62374;BME280;48409;49.030;1.820;2023-01-19T07:44:15;100006.78;;;2.59;64.96
62374;BME280;48409;49.030;1.820;2023-01-19T07:46:40;100018.94;;;2.59;65.06
62374;BME280;48409;49.030;1.820;2023-01-19T07:49:07;100010.28;;;2.58;65.25
62374;BME280;48409;49.030;1.820;2023-01-19T07:51:33;100017.19;;;2.59;65.09
62374;BME280;48409;49.030;1.820;2023-01-19T07:54:01;100020.69;;;2.58;65.05
62374;BME280;48409;49.030;1.820;2023-01-19T07:56:27;100014.69;;;2.56;65.16
62374;BME280;48409;49.030;1.820;2023-01-19T07:58:54;100017.28;;;2.56;65.14
62374;BME280;48409;49.030;1.820;2023-01-19T08:01:23;100022.47;;;2.56;65.12
62374;BME280;48409;49.030;1.820;2023-01-19T08:03:48;100029.41;;;2.56;65.12
62374;BME280;48409;49.030;1.820;2023-01-19T08:06:22;100027.69;;;2.56;64.92
62374;BME280;48409;49.030;1.820;2023-01-19T08:08:48;100032.84;;;2.58;64.99
62374;BME280;48409;49.030;1.820;2023-01-19T08:11:14;100040.66;;;2.58;65.04
62374;BME280;48409;49.030;1.820;2023-01-19T08:13:40;100044.06;;;2.60;65.02
62374;BME280;48409;49.030;1.820;2023-01-19T08:16:08;100044.94;;;2.59;64.95
62374;BME280;48409;49.030;1.820;2023-01-19T08:18:34;100038.84;;;2.60;65.23
62374;BME280;48409;49.030;1.820;2023-01-19T08:21:00;100036.22;;;2.61;65.05
62374;BME280;48409;49.030;1.820;2023-01-19T08:23:26;100044.03;;;2.61;65.08
62374;BME280;48409;49.030;1.820;2023-01-19T08:25:53;100051.75;;;2.65;64.89
62374;BME280;48409;49.030;1.820;2023-01-19T08:28:18;100043.13;;;2.63;65.24
62374;BME280;48409;49.030;1.820;2023-01-19T08:30:44;100039.63;;;2.64;65.11
62374;BME280;48409;49.030;1.820;2023-01-19T08:33:11;100043.09;;;2.64;65.14
62374;BME280;48409;49.030;1.820;2023-01-19T08:35:41;100037.84;;;2.66;65.04
62374;BME280;48409;49.030;1.820;2023-01-19T08:38:08;100044.75;;;2.67;64.99
62374;BME280;48409;49.030;1.820;2023-01-19T08:40:36;100043.00;;;2.69;65.29
62374;BME280;48409;49.030;1.820;2023-01-19T08:43:05;100040.34;;;2.70;65.03
62374;BME280;48409;49.030;1.820;2023-01-19T08:45:34;100041.19;;;2.71;65.09
62374;BME280;48409;49.030;1.820;2023-01-19T08:47:59;100052.47;;;2.71;65.00
62374;BME280;48409;49.030;1.820;2023-01-19T08:50:27;100057.66;;;2.71;65.35
62374;BME280;48409;49.030;1.820;2023-01-19T08:52:55;100043.75;;;2.72;65.29
62374;BME280;48409;49.030;1.820;2023-01-19T08:55:22;100049.84;;;2.73;65.30
62374;BME280;48409;49.030;1.820;2023-01-19T08:57:51;100050.63;;;2.75;65.11
62374;BME280;48409;49.030;1.820;2023-01-19T09:00:18;100050.59;;;2.77;65.05
62374;BME280;48409;49.030;1.820;2023-01-19T09:02:44;100053.19;;;2.78;65.32
62374;BME280;48409;49.030;1.820;2023-01-19T09:05:09;100056.59;;;2.80;65.51
62374;BME280;48409;49.030;1.820;2023-01-19T09:07:35;100059.19;;;2.80;65.13
62374;BME280;48409;49.030;1.820;2023-01-19T09:10:02;100055.63;;;2.84;65.46
62374;BME280;48409;49.030;1.820;2023-01-19T09:12:31;100058.16;;;2.87;65.32
62374;BME280;48409;49.030;1.820;2023-01-19T09:14:56;100052.94;;;2.87;65.22
62374;BME280;48409;49.030;1.820;2023-01-19T09:17:22;100053.75;;;2.90;65.50
62374;BME280;48409;49.030;1.820;2023-01-19T09:19:47;100051.09;;;2.93;65.53
62374;BME280;48409;49.030;1.820;2023-01-19T09:22:13;100045.84;;;2.94;65.45
62374;BME280;48409;49.030;1.820;2023-01-19T09:24:38;100045.81;;;2.96;65.57
62374;BME280;48409;49.030;1.820;2023-01-19T09:27:04;100051.81;;;2.98;65.57
62374;BME280;48409;49.030;1.820;2023-01-19T09:29:29;100052.66;;;3.00;65.50
62374;BME280;48409;49.030;1.820;2023-01-19T09:31:54;100043.03;;;3.02;65.47
62374;BME280;48409;49.030;1.820;2023-01-19T09:34:22;100049.09;;;3.04;65.52
62374;BME280;48409;49.030;1.820;2023-01-19T09:36:52;100042.94;;;3.07;65.59
62374;BME280;48409;49.030;1.820;2023-01-19T09:39:17;100043.78;;;3.07;65.46
62374;BME280;48409;49.030;1.820;2023-01-19T09:41:48;100040.22;;;3.11;65.73
62374;BME280;48409;49.030;1.820;2023-01-19T09:44:27;100040.19;;;3.13;65.62
62374;BME280;48409;49.030;1.820;2023-01-19T09:46:53;100045.31;;;3.16;65.34
62374;BME280;48409;49.030;1.820;2023-01-19T09:49:26;100045.28;;;3.18;65.56
62374;BME280;48409;49.030;1.820;2023-01-19T09:51:53;100046.91;;;3.22;65.73
62374;BME280;48409;49.030;1.820;2023-01-19T09:54:56;100049.44;;;3.23;65.46
62374;BME280;48409;49.030;1.820;2023-01-19T09:57:23;100050.25;;;3.27;65.68
62374;BME280;48409;49.030;1.820;2023-01-19T09:59:50;100054.50;;;3.30;65.66
62374;BME280;48409;49.030;1.820;2023-01-19T10:10:24;100050.75;;;3.40;65.74
62374;BME280;48409;49.030;1.820;2023-01-19T10:18:43;100055.72;;;3.49;65.84
62374;BME280;48409;49.030;1.820;2023-01-19T10:21:20;100053.03;;;3.52;65.87
62374;BME280;48409;49.030;1.820;2023-01-19T10:23:54;100049.50;;;3.55;65.86
62374;BME280;48409;49.030;1.820;2023-01-19T10:26:26;100044.22;;;3.58;65.85
62374;BME280;48409;49.030;1.820;2023-01-19T10:29:04;100051.03;;;3.62;65.95
62374;BME280;48409;49.030;1.820;2023-01-19T10:31:31;100038.81;;;3.64;66.11
62374;BME280;48409;49.030;1.820;2023-01-19T10:33:58;100038.75;;;3.68;65.96
62374;BME280;48409;49.030;1.820;2023-01-19T10:36:28;100033.47;;;3.71;65.96
62374;BME280;48409;49.030;1.820;2023-01-19T10:38:54;100042.00;;;3.76;66.18
62374;BME280;48409;49.030;1.820;2023-01-19T10:41:39;100039.28;;;3.79;66.12
62374;BME280;48409;49.030;1.820;2023-01-19T10:44:05;100036.59;;;3.82;66.14
62374;BME280;48409;49.030;1.820;2023-01-19T10:46:40;100041.72;;;3.85;66.09
62374;BME280;48409;49.030;1.820;2023-01-19T10:49:21;100047.69;;;3.89;66.03
62374;BME280;48409;49.030;1.820;2023-01-19T10:51:47;100045.84;;;3.92;66.12
62374;BME280;48409;49.030;1.820;2023-01-19T10:54:13;100048.38;;;3.96;66.05
62374;BME280;48409;49.030;1.820;2023-01-19T10:56:39;100043.09;;;3.99;66.12
62374;BME280;48409;49.030;1.820;2023-01-19T10:59:34;100040.44;;;4.00;66.01
62374;BME280;48409;49.030;1.820;2023-01-19T11:04:34;100042.00;;;4.06;66.16
62374;BME280;48409;49.030;1.820;2023-01-19T11:07:13;100045.34;;;4.11;66.15
62374;BME280;48409;49.030;1.820;2023-01-19T11:09:39;100040.09;;;4.13;66.03
62374;BME280;48409;49.030;1.820;2023-01-19T11:12:14;100039.13;;;4.15;66.08
62374;BME280;48409;49.030;1.820;2023-01-19T11:14:41;100042.53;;;4.17;66.01
62374;BME280;48409;49.030;1.820;2023-01-19T11:17:17;100032.03;;;4.21;66.25
62374;BME280;48409;49.030;1.820;2023-01-19T11:19:51;100033.69;;;4.23;66.28
62374;BME280;48409;49.030;1.820;2023-01-19T11:22:19;100033.63;;;4.25;66.26
62374;BME280;48409;49.030;1.820;2023-01-19T11:24:49;100028.38;;;4.26;66.06
62374;BME280;48409;49.030;1.820;2023-01-19T11:27:16;100031.75;;;4.30;66.12
62374;BME280;48409;49.030;1.820;2023-01-19T11:29:58;100029.94;;;4.32;66.30
62374;BME280;48409;49.030;1.820;2023-01-19T11:32:26;100024.63;;;4.35;66.32
62374;BME280;48409;49.030;1.820;2023-01-19T11:34:51;100021.09;;;4.36;66.11
62374;BME280;48409;49.030;1.820;2023-01-19T11:39:54;100026.16;;;4.42;66.34
62374;BME280;48409;49.030;1.820;2023-01-19T11:42:21;100019.13;;;4.44;66.30
62374;BME280;48409;49.030;1.820;2023-01-19T11:47:22;100008.59;;;4.48;66.16
62374;BME280;48409;49.030;1.820;2023-01-19T11:50:00;100004.13;;;4.51;66.02
62374;BME280;48409;49.030;1.820;2023-01-19T11:52:32;100006.69;;;4.53;66.35
62374;BME280;48409;49.030;1.820;2023-01-19T11:57:56;100001.38;;;4.56;66.22
62374;BME280;48409;49.030;1.820;2023-01-19T12:00:25;100003.09;;;4.57;66.14
62374;BME280;48409;49.030;1.820;2023-01-19T12:02:57;99999.56;;;4.58;66.26
62374;BME280;48409;49.030;1.820;2023-01-19T12:05:30;99995.16;;;4.60;66.17
62374;BME280;48409;49.030;1.820;2023-01-19T12:07:59;99994.25;;;4.61;66.26
62374;BME280;48409;49.030;1.820;2023-01-19T12:10:30;99987.31;;;4.62;66.16
62374;BME280;48409;49.030;1.820;2023-01-19T12:12:57;99982.00;;;4.63;66.26
62374;BME280;48409;49.030;1.820;2023-01-19T12:15:35;99980.22;;;4.65;66.32
62374;BME280;48409;49.030;1.820;2023-01-19T12:18:04;99980.16;;;4.67;66.25
62374;BME280;48409;49.030;1.820;2023-01-19T12:28:33;99960.84;;;4.73;65.97
62374;BME280;48409;49.030;1.820;2023-01-19T12:31:02;99955.56;;;4.74;66.38
62374;BME280;48409;49.030;1.820;2023-01-19T12:35:58;99952.06;;;4.75;66.20
62374;BME280;48409;49.030;1.820;2023-01-19T12:39:00;99957.13;;;4.80;66.40
62374;BME280;48409;49.030;1.820;2023-01-19T12:41:34;99945.84;;;4.79;66.40
62374;BME280;48409;49.030;1.820;2023-01-19T12:46:53;99945.75;;;4.81;66.26
62374;BME280;48409;49.030;1.820;2023-01-19T12:55:06;99936.88;;;4.87;66.10
62374;BME280;48409;49.030;1.820;2023-01-19T13:02:59;99928.09;;;4.89;66.06
62374;BME280;48409;49.030;1.820;2023-01-19T13:13:27;99916.78;;;4.90;66.23
62374;BME280;48409;49.030;1.820;2023-01-19T13:15:53;99904.59;;;4.89;66.06
62374;BME280;48409;49.030;1.820;2023-01-19T13:18:30;99916.78;;;4.90;66.19
62374;BME280;48409;49.030;1.820;2023-01-19T13:21:03;99906.34;;;4.90;66.07
62374;BME280;48409;49.030;1.820;2023-01-19T13:26:25;99901.84;;;4.94;66.22
62374;BME280;48409;49.030;1.820;2023-01-19T13:28:57;99904.41;;;4.95;66.07
62374;BME280;48409;49.030;1.820;2023-01-19T13:31:32;99901.78;;;4.95;66.28
62374;BME280;48409;49.030;1.820;2023-01-19T13:34:00;99904.28;;;4.99;66.27
62374;BME280;48409;49.030;1.820;2023-01-19T13:36:32;99897.25;;;5.01;66.30
62374;BME280;48409;49.030;1.820;2023-01-19T13:39:05;99896.34;;;5.02;66.35
62374;BME280;48409;49.030;1.820;2023-01-19T13:41:38;99887.59;;;5.03;66.20
62374;BME280;48409;49.030;1.820;2023-01-19T13:44:12;99888.41;;;5.05;66.34
62374;BME280;48409;49.030;1.820;2023-01-19T13:46:40;99882.19;;;5.09;66.49
62374;BME280;48409;49.030;1.820;2023-01-19T13:49:20;99881.25;;;5.10;66.46
62374;BME280;48409;49.030;1.820;2023-01-19T13:54:30;99880.25;;;5.14;66.36
62374;BME280;48409;49.030;1.820;2023-01-19T13:56:55;99878.41;;;5.16;66.21
62374;BME280;48409;49.030;1.820;2023-01-19T13:59:21;99881.84;;;5.18;66.44
62374;BME280;48409;49.030;1.820;2023-01-19T14:01:46;99877.44;;;5.19;66.37
62374;BME280;48409;49.030;1.820;2023-01-19T14:04:31;99886.97;;;5.21;66.50
62374;BME280;48409;49.030;1.820;2023-01-19T14:07:02;99886.03;;;5.22;66.51
62374;BME280;48409;49.030;1.820;2023-01-19T14:09:29;99887.75;;;5.23;66.40
62374;BME280;48409;49.030;1.820;2023-01-19T14:12:15;99886.81;;;5.25;66.13
62374;BME280;48409;49.030;1.820;2023-01-19T14:14:42;99891.13;;;5.26;66.16
62374;BME280;48409;49.030;1.820;2023-01-19T14:17:27;99889.44;;;5.25;66.32
62374;BME280;48409;49.030;1.820;2023-01-19T14:19:54;99888.53;;;5.26;66.21
62374;BME280;48409;49.030;1.820;2023-01-19T14:22:38;99890.25;;;5.27;66.30
62374;BME280;48409;49.030;1.820;2023-01-19T14:31:21;99901.56;;;5.26;66.29
62374;BME280;48409;49.030;1.820;2023-01-19T14:33:53;99899.88;;;5.25;66.28
62374;BME280;48409;49.030;1.820;2023-01-19T14:36:33;99905.09;;;5.25;66.10